sensor_id;sensor_type;location;lat;lon;timestamp;pressure;altitude;pressure_sealevel;temperature;humidity
48390;BME280;34643;47.964;7.982;2023-09-19T00:02:04;96536.06;;;22.18;58.64
48390;BME280;34643;47.964;7.982;2023-09-19T00:07:05;96543.97;;;22.18;58.72
48390;BME280;34643;47.964;7.982;2023-09-19T00:12:06;96552.00;;;22.16;58.83
48390;BME280;34643;47.964;7.982;2023-09-19T00:17:06;96548.69;;;22.14;59.05
48390;BME280;34643;47.964;7.982;2023-09-19T00:22:08;96543.28;;;22.16;58.74
48390;BME280;34643;47.964;7.982;2023-09-19T00:27:08;96546.06;;;22.14;58.60
48390;BME280;34643;47.964;7.982;2023-09-19T00:32:09;96547.88;;;22.14;58.41
48390;BME280;34643;47.964;7.982;2023-09-19T00:37:10;96551.31;;;22.14;58.94
48390;BME280;34643;47.964;7.982;2023-09-19T00:42:17;96552.28;;;22.13;58.84
48390;BME280;34643;47.964;7.982;2023-09-19T00:47:19;96547.03;;;22.13;58.82
48390;BME280;34643;47.964;7.982;2023-09-19T00:52:20;96548.16;;;22.11;58.55
48390;BME280;34643;47.964;7.982;2023-09-19T00:57:21;96547.34;;;22.10;58.66
48390;BME280;34643;47.964;7.982;2023-09-19T01:02:22;96552.59;;;22.10;58.49
48390;BME280;34643;47.964;7.982;2023-09-19T01:07:23;96548.16;;;22.11;58.55
48390;BME280;34643;47.964;7.982;2023-09-19T01:12:29;96554.25;;;22.11;58.49
48390;BME280;34643;47.964;7.982;2023-09-19T01:17:40;96553.81;;;22.16;58.61
48390;BME280;34643;47.964;7.982;2023-09-19T01:28:15;96556.47;;;22.06;58.71
48390;BME280;34643;47.964;7.982;2023-09-19T01:33:20;96562.06;;;22.03;58.55
48390;BME280;34643;47.964;7.982;2023-09-19T01:38:20;96562.63;;;21.97;57.32
48390;BME280;34643;47.964;7.982;2023-09-19T01:43:22;96571.16;;;21.81;56.13
48390;BME280;34643;47.964;7.982;2023-09-19T01:48:38;96556.81;;;21.75;55.97
48390;BME280;34643;47.964;7.982;2023-09-19T01:58:45;96562.63;;;21.79;56.05
48390;BME280;34643;47.964;7.982;2023-09-19T02:03:47;96560.94;;;21.78;55.81
48390;BME280;34643;47.964;7.982;2023-09-19T02:08:47;96573.53;;;21.74;55.44
48390;BME280;34643;47.964;7.982;2023-09-19T02:13:49;96570.56;;;21.69;55.45
48390;BME280;34643;47.964;7.982;2023-09-19T02:18:54;96583.31;;;21.64;55.04
48390;BME280;34643;47.964;7.982;2023-09-19T02:23:55;96578.03;;;21.64;55.34
48390;BME280;34643;47.964;7.982;2023-09-19T02:28:55;96585.13;;;21.54;55.34
48390;BME280;34643;47.964;7.982;2023-09-19T02:33:55;96593.41;;;21.59;55.31
48390;BME280;34643;47.964;7.982;2023-09-19T02:38:56;96596.84;;;21.59;55.42
48390;BME280;34643;47.964;7.982;2023-09-19T02:43:56;96587.63;;;21.55;55.30
48390;BME280;34643;47.964;7.982;2023-09-19T02:48:58;96590.78;;;21.59;55.67
48390;BME280;34643;47.964;7.982;2023-09-19T02:54:01;96595.38;;;21.47;55.60
48390;BME280;34643;47.964;7.982;2023-09-19T02:59:03;96599.09;;;21.44;55.85
48390;BME280;34643;47.964;7.982;2023-09-19T03:04:05;96590.28;;;21.45;55.81
48390;BME280;34643;47.964;7.982;2023-09-19T03:09:06;96584.59;;;21.50;56.23
48390;BME280;34643;47.964;7.982;2023-09-19T03:14:13;96590.38;;;21.54;56.09
48390;BME280;34643;47.964;7.982;2023-09-19T03:19:15;96602.94;;;21.60;56.36
48390;BME280;34643;47.964;7.982;2023-09-19T03:24:16;96610.53;;;21.63;56.55
48390;BME280;34643;47.964;7.982;2023-09-19T03:29:17;96604.31;;;21.64;56.76
48390;BME280;34643;47.964;7.982;2023-09-19T03:34:19;96598.22;;;21.63;56.82
48390;BME280;34643;47.964;7.982;2023-09-19T03:39:20;96600.69;;;21.65;57.10
48390;BME280;34643;47.964;7.982;2023-09-19T03:44:20;96604.13;;;21.65;56.75
48390;BME280;34643;47.964;7.982;2023-09-19T03:49:21;96600.41;;;21.68;56.93
48390;BME280;34643;47.964;7.982;2023-09-19T03:54:21;96597.94;;;21.67;57.19
48390;BME280;34643;47.964;7.982;2023-09-19T03:59:33;96595.44;;;21.65;57.16
48390;BME280;34643;47.964;7.982;2023-09-19T04:04:35;96597.38;;;21.63;56.92
48390;BME280;34643;47.964;7.982;2023-09-19T04:09:35;96605.94;;;21.65;57.16
48390;BME280;34643;47.964;7.982;2023-09-19T04:14:36;96609.25;;;21.67;57.15
48390;BME280;34643;47.964;7.982;2023-09-19T04:19:36;96611.19;;;21.65;57.11
48390;BME280;34643;47.964;7.982;2023-09-19T04:24:36;96617.13;;;21.67;56.98
48390;BME280;34643;47.964;7.982;2023-09-19T04:29:38;96613.53;;;21.68;57.39
48390;BME280;34643;47.964;7.982;2023-09-19T04:34:39;96601.91;;;21.71;57.37
48390;BME280;34643;47.964;7.982;2023-09-19T04:39:39;96612.00;;;21.75;57.21
48390;BME280;34643;47.964;7.982;2023-09-19T04:44:40;96623.31;;;21.76;57.43
48390;BME280;34643;47.964;7.982;2023-09-19T04:49:40;96626.56;;;20.54;60.15
48390;BME280;34643;47.964;7.982;2023-09-19T04:54:41;96643.13;;;20.55;60.19
48390;BME280;34643;47.964;7.982;2023-09-19T04:59:41;96642.88;;;20.67;59.79
48390;BME280;34643;47.964;7.982;2023-09-19T05:04:41;96647.78;;;21.19;58.46
48390;BME280;34643;47.964;7.982;2023-09-19T05:09:45;96650.81;;;21.34;58.13
48390;BME280;34643;47.964;7.982;2023-09-19T05:14:45;96644.03;;;21.41;57.60
48390;BME280;34643;47.964;7.982;2023-09-19T05:19:46;96652.19;;;21.48;57.57
48390;BME280;34643;47.964;7.982;2023-09-19T05:24:46;96650.78;;;21.54;57.44
48390;BME280;34643;47.964;7.982;2023-09-19T05:29:49;96657.53;;;21.56;58.15
48390;BME280;34643;47.964;7.982;2023-09-19T05:34:50;96665.41;;;21.56;58.19
48390;BME280;34643;47.964;7.982;2023-09-19T05:39:56;96672.34;;;21.57;58.07
48390;BME280;34643;47.964;7.982;2023-09-19T05:44:57;96680.22;;;21.57;57.73
48390;BME280;34643;47.964;7.982;2023-09-19T05:49:58;96689.72;;;21.58;57.71
48390;BME280;34643;47.964;7.982;2023-09-19T05:54:59;96697.47;;;21.60;57.70
48390;BME280;34643;47.964;7.982;2023-09-19T06:00:00;96704.41;;;21.61;57.82
48390;BME280;34643;47.964;7.982;2023-09-19T06:05:00;96700.09;;;21.60;57.68
48390;BME280;34643;47.964;7.982;2023-09-19T06:10:00;96708.84;;;21.60;57.82
48390;BME280;34643;47.964;7.982;2023-09-19T06:15:01;96710.47;;;21.61;57.67
48390;BME280;34643;47.964;7.982;2023-09-19T06:20:01;96715.72;;;21.61;57.80
48390;BME280;34643;47.964;7.982;2023-09-19T06:25:04;96717.38;;;21.62;57.59
48390;BME280;34643;47.964;7.982;2023-09-19T06:30:05;96722.66;;;21.62;57.58
48390;BME280;34643;47.964;7.982;2023-09-19T06:35:06;96728.72;;;21.63;57.76
48390;BME280;34643;47.964;7.982;2023-09-19T06:40:12;96728.72;;;21.63;57.69
48390;BME280;34643;47.964;7.982;2023-09-19T06:45:14;96721.78;;;21.62;57.40
48390;BME280;34643;47.964;7.982;2023-09-19T06:50:19;96739.22;;;21.63;57.51
48390;BME280;34643;47.964;7.982;2023-09-19T06:55:22;96739.22;;;21.63;57.31
48390;BME280;34643;47.964;7.982;2023-09-19T07:00:25;96742.66;;;21.63;57.49
48390;BME280;34643;47.964;7.982;2023-09-19T07:05:25;96752.22;;;21.64;57.17
48390;BME280;34643;47.964;7.982;2023-09-19T07:10:27;96743.53;;;21.64;57.40
48390;BME280;34643;47.964;7.982;2023-09-19T07:15:29;96742.53;;;21.65;57.14
48390;BME280;34643;47.964;7.982;2023-09-19T07:20:30;96754.72;;;21.66;57.36
48390;BME280;34643;47.964;7.982;2023-09-19T07:25:32;96753.84;;;21.65;57.33
48390;BME280;34643;47.964;7.982;2023-09-19T07:30:35;96744.19;;;21.66;57.27
48390;BME280;34643;47.964;7.982;2023-09-19T07:35:37;96756.34;;;21.67;56.85
48390;BME280;34643;47.964;7.982;2023-09-19T07:40:40;96759.69;;;21.69;57.29
48390;BME280;34643;47.964;7.982;2023-09-19T07:45:40;96768.53;;;21.68;57.10
48390;BME280;34643;47.964;7.982;2023-09-19T07:50:40;96763.28;;;21.68;57.26
48390;BME280;34643;47.964;7.982;2023-09-19T07:55:43;96765.75;;;21.70;57.00
48390;BME280;34643;47.964;7.982;2023-09-19T08:00:43;96774.47;;;21.70;57.14
48390;BME280;34643;47.964;7.982;2023-09-19T08:05:44;96784.97;;;21.70;56.98
48390;BME280;34643;47.964;7.982;2023-09-19T08:10:45;96782.34;;;21.70;57.12
48390;BME280;34643;47.964;7.982;2023-09-19T08:15:48;96791.88;;;21.71;56.96
48390;BME280;34643;47.964;7.982;2023-09-19T08:20:52;96794.50;;;21.71;57.16
48390;BME280;34643;47.964;7.982;2023-09-19T08:25:56;96793.66;;;21.71;56.88
48390;BME280;34643;47.964;7.982;2023-09-19T08:31:01;96803.34;;;21.70;56.95
48390;BME280;34643;47.964;7.982;2023-09-19T08:36:04;96808.59;;;21.70;56.92
48390;BME280;34643;47.964;7.982;2023-09-19T08:41:05;96807.66;;;21.71;56.79
48390;BME280;34643;47.964;7.982;2023-09-19T08:46:14;96810.28;;;21.71;56.66
48390;BME280;34643;47.964;7.982;2023-09-19T08:51:18;96822.44;;;21.72;56.82
48390;BME280;34643;47.964;7.982;2023-09-19T08:56:22;96823.28;;;21.73;56.80
48390;BME280;34643;47.964;7.982;2023-09-19T09:01:27;96824.09;;;21.73;56.85
48390;BME280;34643;47.964;7.982;2023-09-19T09:06:28;96821.47;;;21.73;56.62
48390;BME280;34643;47.964;7.982;2023-09-19T09:11:28;96826.72;;;21.73;56.72
48390;BME280;34643;47.964;7.982;2023-09-19T09:16:29;96825.75;;;21.74;56.68
48390;BME280;34643;47.964;7.982;2023-09-19T09:21:30;96827.41;;;21.75;56.64
48390;BME280;34643;47.964;7.982;2023-09-19T09:26:42;96828.22;;;21.76;56.60
48390;BME280;34643;47.964;7.982;2023-09-19T09:31:42;96820.34;;;21.76;56.51
48390;BME280;34643;47.964;7.982;2023-09-19T09:36:43;96829.91;;;21.77;56.45
48390;BME280;34643;47.964;7.982;2023-09-19T09:41:48;96823.81;;;21.76;56.54
48390;BME280;34643;47.964;7.982;2023-09-19T09:46:48;96830.84;;;21.76;56.36
48390;BME280;34643;47.964;7.982;2023-09-19T09:56:59;96825.31;;;21.79;56.54
48390;BME280;34643;47.964;7.982;2023-09-19T10:02:04;96827.13;;;21.78;56.56
48390;BME280;34643;47.964;7.982;2023-09-19T10:07:04;96823.53;;;21.79;56.39
48390;BME280;34643;47.964;7.982;2023-09-19T10:12:11;96810.25;;;21.81;56.36
48390;BME280;34643;47.964;7.982;2023-09-19T10:17:12;96821.56;;;21.81;56.43
48390;BME280;34643;47.964;7.982;2023-09-19T10:22:16;96820.63;;;21.82;56.52
48390;BME280;34643;47.964;7.982;2023-09-19T10:27:16;96813.56;;;21.83;56.44
48390;BME280;34643;47.964;7.982;2023-09-19T10:32:17;96809.16;;;21.83;56.49
48390;BME280;34643;47.964;7.982;2023-09-19T10:37:18;96806.53;;;21.83;56.49
48390;BME280;34643;47.964;7.982;2023-09-19T10:42:20;96806.34;;;21.85;56.70
48390;BME280;34643;47.964;7.982;2023-09-19T10:47:20;96802.91;;;21.84;56.78
48390;BME280;34643;47.964;7.982;2023-09-19T10:52:25;96795.84;;;21.85;56.72
48390;BME280;34643;47.964;7.982;2023-09-19T10:57:27;96797.50;;;21.86;56.78
48390;BME280;34643;47.964;7.982;2023-09-19T11:02:31;96798.34;;;21.87;56.51
48390;BME280;34643;47.964;7.982;2023-09-19T11:07:32;96800.81;;;21.88;56.56
48390;BME280;34643;47.964;7.982;2023-09-19T11:12:55;96790.44;;;21.87;56.96
48390;BME280;34643;47.964;7.982;2023-09-19T11:17:56;96787.81;;;21.87;56.93
48390;BME280;34643;47.964;7.982;2023-09-19T11:39:19;96790.19;;;21.90;56.92
48390;BME280;34643;47.964;7.982;2023-09-19T11:49:09;96784.91;;;21.90;56.84
48390;BME280;34643;47.964;7.982;2023-09-19T11:54:13;96778.72;;;21.91;56.96
48390;BME280;34643;47.964;7.982;2023-09-19T11:59:25;96772.59;;;21.90;56.91
48390;BME280;34643;47.964;7.982;2023-09-19T12:04:34;96769.84;;;21.92;56.95
48390;BME280;34643;47.964;7.982;2023-09-19T12:09:39;96774.13;;;21.93;56.71
48390;BME280;34643;47.964;7.982;2023-09-19T12:14:40;96756.69;;;21.92;57.04
48390;BME280;34643;47.964;7.982;2023-09-19T12:19:56;96761.94;;;22.01;56.87
48390;BME280;34643;47.964;7.982;2023-09-19T12:25:05;96757.09;;;21.97;56.97
48390;BME280;34643;47.964;7.982;2023-09-19T12:30:05;96754.59;;;21.95;56.99
48390;BME280;34643;47.964;7.982;2023-09-19T12:35:06;96738.97;;;21.94;56.87
48390;BME280;34643;47.964;7.982;2023-09-19T12:40:13;96741.63;;;21.94;56.99
48390;BME280;34643;47.964;7.982;2023-09-19T12:45:22;96737.22;;;21.94;56.87
48390;BME280;34643;47.964;7.982;2023-09-19T12:50:22;96732.91;;;21.93;56.88
48390;BME280;34643;47.964;7.982;2023-09-19T12:55:30;96728.47;;;21.94;57.08
48390;BME280;34643;47.964;7.982;2023-09-19T13:00:39;96719.63;;;21.95;56.90
48390;BME280;34643;47.964;7.982;2023-09-19T13:05:48;96721.44;;;21.94;57.00
48390;BME280;34643;47.964;7.982;2023-09-19T13:16:01;96706.50;;;21.95;56.94
48390;BME280;34643;47.964;7.982;2023-09-19T13:21:05;96706.34;;;21.96;56.89
48390;BME280;34643;47.964;7.982;2023-09-19T13:26:06;96696.66;;;21.97;57.24
48390;BME280;34643;47.964;7.982;2023-09-19T13:31:07;96689.59;;;21.97;56.97
48390;BME280;34643;47.964;7.982;2023-09-19T13:36:07;96692.41;;;21.96;57.26
48390;BME280;34643;47.964;7.982;2023-09-19T13:41:09;96687.13;;;21.96;56.99
48390;BME280;34643;47.964;7.982;2023-09-19T13:46:10;96685.47;;;21.95;57.06
48390;BME280;34643;47.964;7.982;2023-09-19T13:51:16;96669.69;;;21.95;56.77
48390;BME280;34643;47.964;7.982;2023-09-19T13:56:16;96674.00;;;21.96;56.98
48390;BME280;34643;47.964;7.982;2023-09-19T14:01:17;96672.34;;;21.95;56.60
48390;BME280;34643;47.964;7.982;2023-09-19T14:06:17;96669.69;;;21.95;56.84
48390;BME280;34643;47.964;7.982;2023-09-19T14:11:18;96669.69;;;21.95;56.46
48390;BME280;34643;47.964;7.982;2023-09-19T14:16:18;96666.41;;;21.93;56.67
48390;BME280;34643;47.964;7.982;2023-09-19T14:21:19;96656.03;;;21.91;55.94
48390;BME280;34643;47.964;7.982;2023-09-19T14:26:19;96655.34;;;21.89;55.79
48390;BME280;34643;47.964;7.982;2023-09-19T14:31:19;96650.91;;;21.90;55.68
48390;BME280;34643;47.964;7.982;2023-09-19T14:36:20;96637.78;;;21.90;55.62
48390;BME280;34643;47.964;7.982;2023-09-19T14:41:22;96652.72;;;21.89;55.38
48390;BME280;34643;47.964;7.982;2023-09-19T14:46:23;96648.44;;;21.88;55.23
48390;BME280;34643;47.964;7.982;2023-09-19T14:51:24;96642.22;;;21.89;55.42
48390;BME280;34643;47.964;7.982;2023-09-19T14:56:24;96653.53;;;21.90;55.17
48390;BME280;34643;47.964;7.982;2023-09-19T15:01:25;96644.00;;;21.89;55.40
48390;BME280;34643;47.964;7.982;2023-09-19T15:06:26;96638.72;;;21.89;55.59
48390;BME280;34643;47.964;7.982;2023-09-19T15:11:26;96626.44;;;21.89;55.40
48390;BME280;34643;47.964;7.982;2023-09-19T15:16:27;96629.91;;;21.90;55.40
48390;BME280;34643;47.964;7.982;2023-09-19T15:21:27;96630.72;;;21.90;55.67
48390;BME280;34643;47.964;7.982;2023-09-19T15:26:27;96635.16;;;21.90;55.81
48390;BME280;34643;47.964;7.982;2023-09-19T15:31:28;96635.16;;;21.90;55.65
48390;BME280;34643;47.964;7.982;2023-09-19T15:36:28;96643.03;;;21.90;55.70
48390;BME280;34643;47.964;7.982;2023-09-19T15:41:32;96636.81;;;21.91;55.83
48390;BME280;34643;47.964;7.982;2023-09-19T15:46:33;96638.59;;;21.90;55.90
48390;BME280;34643;47.964;7.982;2023-09-19T15:51:35;96642.06;;;21.91;55.85
48390;BME280;34643;47.964;7.982;2023-09-19T15:56:39;96633.19;;;21.92;55.94
48390;BME280;34643;47.964;7.982;2023-09-19T16:01:41;96629.75;;;21.91;55.97
48390;BME280;34643;47.964;7.982;2023-09-19T16:06:42;96634.59;;;21.96;56.27
48390;BME280;34643;47.964;7.982;2023-09-19T16:11:43;96629.31;;;21.96;56.28
48390;BME280;34643;47.964;7.982;2023-09-19T16:16:43;96631.09;;;21.95;56.23
48390;BME280;34643;47.964;7.982;2023-09-19T16:21:44;96633.06;;;21.93;56.03
48390;BME280;34643;47.964;7.982;2023-09-19T16:26:44;96624.22;;;21.94;56.08
48390;BME280;34643;47.964;7.982;2023-09-19T16:31:45;96622.41;;;21.95;56.28
48390;BME280;34643;47.964;7.982;2023-09-19T16:36:45;96622.41;;;21.95;56.37
48390;BME280;34643;47.964;7.982;2023-09-19T16:41:46;96620.72;;;21.94;56.07
48390;BME280;34643;47.964;7.982;2023-09-19T16:46:46;96622.53;;;21.93;56.30
48390;BME280;34643;47.964;7.982;2023-09-19T16:51:46;96622.53;;;21.93;56.28
48390;BME280;34643;47.964;7.982;2023-09-19T16:56:47;96631.25;;;21.94;56.22
48390;BME280;34643;47.964;7.982;2023-09-19T17:01:47;96632.25;;;21.93;56.31
48390;BME280;34643;47.964;7.982;2023-09-19T17:06:48;96646.19;;;21.93;56.11
48390;BME280;34643;47.964;7.982;2023-09-19T17:11:48;96640.13;;;21.93;56.10
48390;BME280;34643;47.964;7.982;2023-09-19T17:16:48;96646.19;;;21.93;56.26
48390;BME280;34643;47.964;7.982;2023-09-19T17:21:49;96655.06;;;21.92;56.14
48390;BME280;34643;47.964;7.982;2023-09-19T17:26:49;96656.84;;;21.92;56.26
48390;BME280;34643;47.964;7.982;2023-09-19T17:31:49;96654.22;;;21.92;56.15
48390;BME280;34643;47.964;7.982;2023-09-19T17:36:50;96657.00;;;21.90;55.98
48390;BME280;34643;47.964;7.982;2023-09-19T17:41:51;96659.22;;;21.85;55.17
48390;BME280;34643;47.964;7.982;2023-09-19T17:46:52;96662.50;;;21.97;55.15
48390;BME280;34643;47.964;7.982;2023-09-19T17:51:52;96665.41;;;22.21;54.16
48390;BME280;34643;47.964;7.982;2023-09-19T17:56:52;96668.06;;;22.12;53.58
48390;BME280;34643;47.964;7.982;2023-09-19T18:01:54;96668.94;;;22.12;54.31
48390;BME280;34643;47.964;7.982;2023-09-19T18:06:57;96675.44;;;22.08;54.93
48390;BME280;34643;47.964;7.982;2023-09-19T18:11:57;96679.88;;;22.08;54.94
48390;BME280;34643;47.964;7.982;2023-09-19T18:16:58;96684.03;;;22.10;55.24
48390;BME280;34643;47.964;7.982;2023-09-19T18:21:58;96679.06;;;22.07;54.37
48390;BME280;34643;47.964;7.982;2023-09-19T18:27:03;96681.03;;;21.95;53.85
48390;BME280;34643;47.964;7.982;2023-09-19T18:32:04;96692.69;;;21.93;53.20
48390;BME280;34643;47.964;7.982;2023-09-19T18:37:04;96694.91;;;21.88;53.10
48390;BME280;34643;47.964;7.982;2023-09-19T18:42:05;96699.34;;;21.87;53.66
48390;BME280;34643;47.964;7.982;2023-09-19T18:47:05;96694.22;;;21.86;53.84
48390;BME280;34643;47.964;7.982;2023-09-19T18:52:05;96709.69;;;21.89;53.92
48390;BME280;34643;47.964;7.982;2023-09-19T18:57:08;96712.31;;;21.89;54.38
48390;BME280;34643;47.964;7.982;2023-09-19T19:02:08;96713.03;;;21.91;54.96
48390;BME280;34643;47.964;7.982;2023-09-19T19:07:10;96714.66;;;21.92;55.33
48390;BME280;34643;47.964;7.982;2023-09-19T19:12:16;96726.84;;;21.93;55.20
48390;BME280;34643;47.964;7.982;2023-09-19T19:17:16;96732.91;;;21.93;55.48
48390;BME280;34643;47.964;7.982;2023-09-19T19:22:16;96725.03;;;21.93;55.48
48390;BME280;34643;47.964;7.982;2023-09-19T19:27:18;96732.78;;;21.95;55.77
48390;BME280;34643;47.964;7.982;2023-09-19T19:32:19;96730.28;;;21.93;55.75
48390;BME280;34643;47.964;7.982;2023-09-19T19:37:25;96738.03;;;21.95;56.20
48390;BME280;34643;47.964;7.982;2023-09-19T19:42:25;96746.88;;;21.94;55.96
48390;BME280;34643;47.964;7.982;2023-09-19T19:47:25;96753.94;;;21.93;56.01
48390;BME280;34643;47.964;7.982;2023-09-19T19:52:28;96754.91;;;21.92;56.09
48390;BME280;34643;47.964;7.982;2023-09-19T19:57:29;96753.78;;;21.95;55.67
48390;BME280;34643;47.964;7.982;2023-09-19T20:02:31;96753.66;;;21.96;55.72
48390;BME280;34643;47.964;7.982;2023-09-19T20:07:31;96747.41;;;21.97;55.91
48390;BME280;34643;47.964;7.982;2023-09-19T20:12:32;96743.81;;;21.98;55.68
48390;BME280;34643;47.964;7.982;2023-09-19T20:17:35;96749.06;;;21.98;56.13
48390;BME280;34643;47.964;7.982;2023-09-19T20:22:35;96763.03;;;21.99;55.84
48390;BME280;34643;47.964;7.982;2023-09-19T20:27:39;96759.44;;;22.00;56.11
48390;BME280;34643;47.964;7.982;2023-09-19T20:32:40;96746.44;;;21.98;55.92
48390;BME280;34643;47.964;7.982;2023-09-19T20:37:40;96751.56;;;22.00;56.20
48390;BME280;34643;47.964;7.982;2023-09-19T20:42:41;96755.47;;;21.96;56.14
48390;BME280;34643;47.964;7.982;2023-09-19T20:47:42;96745.22;;;21.93;56.30
48390;BME280;34643;47.964;7.982;2023-09-19T20:52:43;96747.84;;;21.93;55.96
48390;BME280;34643;47.964;7.982;2023-09-19T20:57:44;96749.66;;;21.92;56.12
48390;BME280;34643;47.964;7.982;2023-09-19T21:02:44;96754.22;;;21.90;56.20
48390;BME280;34643;47.964;7.982;2023-09-19T21:07:47;96749.81;;;21.91;56.14
48390;BME280;34643;47.964;7.982;2023-09-19T21:12:47;96743.84;;;21.89;56.14
48390;BME280;34643;47.964;7.982;2023-09-19T21:17:48;96757.97;;;21.88;56.00
48390;BME280;34643;47.964;7.982;2023-09-19T21:22:48;96747.44;;;21.88;56.00
48390;BME280;34643;47.964;7.982;2023-09-19T21:27:49;96744.16;;;21.86;56.23
48390;BME280;34643;47.964;7.982;2023-09-19T21:32:50;96746.78;;;21.86;56.00
48390;BME280;34643;47.964;7.982;2023-09-19T21:37:50;96743.16;;;21.87;56.26
48390;BME280;34643;47.964;7.982;2023-09-19T21:42:51;96738.03;;;21.85;56.03
48390;BME280;34643;47.964;7.982;2023-09-19T21:47:51;96739.03;;;21.84;56.13
48390;BME280;34643;47.964;7.982;2023-09-19T21:52:51;96732.97;;;21.83;55.87
48390;BME280;34643;47.964;7.982;2023-09-19T21:57:52;96730.88;;;21.87;56.16
48390;BME280;34643;47.964;7.982;2023-09-19T22:02:52;96734.47;;;21.86;56.13
48390;BME280;34643;47.964;7.982;2023-09-19T22:07:53;96735.28;;;21.87;56.22
48390;BME280;34643;47.964;7.982;2023-09-19T22:12:53;96735.41;;;21.85;56.36
48390;BME280;34643;47.964;7.982;2023-09-19T22:17:55;96725.06;;;21.83;56.23
48390;BME280;34643;47.964;7.982;2023-09-19T22:22:56;96721.72;;;21.81;55.81
48390;BME280;34643;47.964;7.982;2023-09-19T22:27:58;96717.34;;;21.82;56.19
48390;BME280;34643;47.964;7.982;2023-09-19T22:32:58;96708.47;;;21.83;55.80
48390;BME280;34643;47.964;7.982;2023-09-19T22:38:00;96710.28;;;21.82;55.90
48390;BME280;34643;47.964;7.982;2023-09-19T22:43:00;96704.34;;;21.80;55.78
48390;BME280;34643;47.964;7.982;2023-09-19T22:48:06;96703.50;;;21.80;56.04
48390;BME280;34643;47.964;7.982;2023-09-19T22:53:08;96710.53;;;21.79;56.05
48390;BME280;34643;47.964;7.982;2023-09-19T22:58:09;96702.66;;;21.79;55.79
48390;BME280;34643;47.964;7.982;2023-09-19T23:03:10;96692.16;;;21.79;55.72
48390;BME280;34643;47.964;7.982;2023-09-19T23:08:11;96692.16;;;21.79;56.12
48390;BME280;34643;47.964;7.982;2023-09-19T23:13:15;96692.28;;;21.78;55.92
48390;BME280;34643;47.964;7.982;2023-09-19T23:18:27;96689.84;;;21.76;55.95
48390;BME280;34643;47.964;7.982;2023-09-19T23:23:28;96695.09;;;21.76;56.10
48390;BME280;34643;47.964;7.982;2023-09-19T23:28:28;96689.66;;;21.78;56.05
48390;BME280;34643;47.964;7.982;2023-09-19T23:33:32;96688.03;;;21.77;55.79
48390;BME280;34643;47.964;7.982;2023-09-19T23:38:33;96689.84;;;21.76;55.81
48390;BME280;34643;47.964;7.982;2023-09-19T23:43:34;96690.81;;;21.75;55.92
48390;BME280;34643;47.964;7.982;2023-09-19T23:48:36;96695.09;;;21.76;55.66
48390;BME280;34643;47.964;7.982;2023-09-19T23:53:36;96701.31;;;21.75;55.76
48390;BME280;34643;47.964;7.982;2023-09-19T23:58:37;96687.50;;;21.73;55.63
